Eustis, NE (69028)

4:06 PM CDT on May 22, 2015 (GMT -0500)
Cozad, Nebraska | | Change Station
CLOSE
Current Station
Personal Weather Station
Location: Cozad, NE
Elevation: 2487 ft
Nearby Weather Stations

Elev 2487 ft 40.86 °N, 99.92 °W | Updated 34 seconds ago

Rain
Rain
48.3 °F
Feels Like 45 °F
N
7.0
Wind Variable Wind from ESE
Gusts 12.0 mph

Today
High -- | Low -- °F
--% Chance of Precip.
Yesterday
High -- | Low -- °F
Precip. -- in
6:17 AM 8:56 PM
Waxing Crescent, 24% visible
Pressure 30.16 in
Visibility 7.0 miles
Clouds Mostly Cloudy 3000 ft
Overcast 3500 ft
Windchill 45 °F
Dew Point 46 °F
Humidity 92%
Rainfall 0.33 in
Snow Depth Not available.
UV 3 out of 12
Pollen 4.30 out of 12
Air Quality Not available.
Flu Activity Sporadic
METAR KLXN 222055Z AUTO 11011G16KT 7SM -RA BKN030 OVC035 10/08 A3016 RMK AO2 P0002 60005 T01000080

More Conditions Fewer Conditions

Pressure 30.16 in
Visibility 7.0 miles
Clouds Mostly Cloudy 3000 ft
Overcast 3500 ft
Windchill 45 °F
Dew Point 46 °F
Humidity 92%
Rainfall 0.33 in
Snow Depth Not available.
UV 3 out of 12
Pollen 4.30 out of 12
Air Quality Not available.
Flu Activity Sporadic
METAR KLXN 222055Z AUTO 11011G16KT 7SM -RA BKN030 OVC035 10/08 A3016 RMK AO2 P0002 60005 T01000080

More Conditions Fewer Conditions

10-Day Weather Forecast

Almanac

Astronomy

May. 22, 2015 Rise Set
Actual Time
Civil Twilight
Nautical Twilight
Astronomical Twilight
Moon
Length of Visible Light
Length of Day
Tomorrow will be .
, % of the Moon is Illuminated

Today's Extremes

State Highs State Lows

Community

WunderPhotos

Upload Photos

1,823,300 photos uploaded!

WunderBlogs® & News

Nearby

Air Quality

  Air Quality AQ Index Pollutant
Not available.

Snow Depth

Station Depth Elevation

Earthquake Activity

City Distance Mag. Time & Date
Minimum magnitude displayed is 2.5.

Coastal Water Temperatures

Place Temperature

Stations

Nearby Weather Stations

Station Location Temp. Windchill Dew Point Humidity Wind Precip. Elev Updated Type